createdAt,value
2023-03-29T00:02:05.250Z,1.70
2023-03-29T00:05:09.320Z,1.67
2023-03-29T00:08:14.466Z,1.50
2023-03-29T00:11:17.215Z,1.40
2023-03-29T00:14:19.813Z,1.40
2023-03-29T00:17:23.997Z,1.80
2023-03-29T00:20:27.017Z,2.07
2023-03-29T00:23:29.726Z,1.38
2023-03-29T00:26:32.207Z,1.90
2023-03-29T00:29:35.048Z,1.40
2023-03-29T00:32:39.018Z,2.35
2023-03-29T00:35:42.526Z,1.60
2023-03-29T00:38:45.244Z,1.38
2023-03-29T00:41:48.113Z,1.47
2023-03-29T00:45:04.044Z,1.20
2023-03-29T00:48:09.155Z,1.40
2023-03-29T00:51:14.248Z,1.90
2023-03-29T00:54:18.651Z,1.70
2023-03-29T00:57:21.784Z,1.57
2023-03-29T01:00:29.709Z,1.60
2023-03-29T01:03:41.441Z,1.80
2023-03-29T01:06:47.939Z,1.43
2023-03-29T01:09:54.486Z,1.30
2023-03-29T01:13:01.466Z,1.47
2023-03-29T01:16:05.002Z,1.63
2023-03-29T01:19:11.535Z,1.55
2023-03-29T01:22:25.878Z,1.87
2023-03-29T01:25:33.335Z,1.63
2023-03-29T01:28:39.945Z,1.30
2023-03-29T01:31:45.623Z,1.43
2023-03-29T01:34:52.077Z,1.63
2023-03-29T01:37:58.364Z,2.13
2023-03-29T01:41:03.353Z,1.57
2023-03-29T01:44:09.280Z,1.60
2023-03-29T01:47:16.290Z,1.90
2023-03-29T01:50:20.942Z,1.50
2023-03-29T01:53:28.371Z,1.53
2023-03-29T01:56:32.070Z,1.50
2023-03-29T02:02:40.218Z,1.75
2023-03-29T02:05:43.342Z,1.57
2023-03-29T02:08:46.591Z,1.65
2023-03-29T02:11:49.706Z,1.77
2023-03-29T02:14:53.931Z,1.60
2023-03-29T02:17:56.836Z,1.87
2023-03-29T02:21:00.194Z,2.03
2023-03-29T02:24:04.910Z,1.70
2023-03-29T02:27:07.658Z,1.93
2023-03-29T02:30:13.638Z,1.65
2023-03-29T02:33:19.206Z,1.60
2023-03-29T02:36:24.175Z,1.63
2023-03-29T02:39:27.877Z,1.70
2023-03-29T02:45:34.641Z,1.87
2023-03-29T02:48:38.562Z,1.70
2023-03-29T02:51:41.177Z,1.70
2023-03-29T02:54:45.262Z,1.63
2023-03-29T02:57:47.794Z,1.60
2023-03-29T03:00:51.710Z,1.60
2023-03-29T03:03:54.367Z,1.90
2023-03-29T03:06:57.029Z,2.10
2023-03-29T03:09:59.560Z,1.57
2023-03-29T03:13:02.540Z,1.77
2023-03-29T03:16:07.955Z,1.40
2023-03-29T03:19:11.374Z,1.60
2023-03-29T03:22:14.902Z,1.88
2023-03-29T03:25:19.387Z,1.63
2023-03-29T03:28:24.133Z,1.73
2023-03-29T03:31:28.449Z,1.50
2023-03-29T03:34:31.030Z,1.17
2023-03-29T03:37:33.577Z,1.70
2023-03-29T03:40:36.069Z,1.90
2023-03-29T03:43:41.137Z,1.87
2023-03-29T03:46:45.056Z,1.50
2023-03-29T03:49:47.550Z,2.00
2023-03-29T03:52:50.121Z,1.60
2023-03-29T03:55:54.188Z,1.63
2023-03-29T03:58:56.716Z,2.10
2023-03-29T04:02:01.409Z,1.70
2023-03-29T04:05:04.210Z,2.00
2023-03-29T04:08:07.390Z,2.42
2023-03-29T04:11:10.519Z,2.25
2023-03-29T04:14:13.171Z,2.30
2023-03-29T04:17:17.054Z,1.60
2023-03-29T04:20:19.610Z,1.23
2023-03-29T04:23:22.168Z,1.57
2023-03-29T04:26:24.732Z,1.50
2023-03-29T04:29:27.411Z,1.50
2023-03-29T04:32:31.275Z,1.47
2023-03-29T04:35:34.269Z,0.80
2023-03-29T04:38:37.879Z,1.15
2023-03-29T04:41:41.118Z,1.00
2023-03-29T04:44:43.806Z,1.25
2023-03-29T04:47:47.719Z,1.15
2023-03-29T04:50:50.628Z,1.07
2023-03-29T04:53:53.209Z,1.17
2023-03-29T04:56:56.659Z,0.90
2023-03-29T04:59:59.298Z,1.52
2023-03-29T05:03:04.422Z,0.93
2023-03-29T05:06:08.734Z,1.37
2023-03-29T05:09:11.421Z,1.13
2023-03-29T05:12:14.075Z,1.20
2023-03-29T05:15:17.102Z,0.97
2023-03-29T05:18:21.093Z,1.13
2023-03-29T05:21:23.978Z,1.47
2023-03-29T05:24:26.632Z,1.17
2023-03-29T05:27:29.748Z,1.00
2023-03-29T05:30:32.696Z,1.17
2023-03-29T05:33:36.969Z,1.15
2023-03-29T05:36:39.793Z,1.10
2023-03-29T05:39:43.029Z,1.08
2023-03-29T05:42:45.708Z,0.85
2023-03-29T05:45:48.618Z,1.20
2023-03-29T05:48:52.560Z,1.00
2023-03-29T05:51:56.956Z,1.33
2023-03-29T05:54:59.512Z,1.70
2023-03-29T05:58:03.727Z,0.77
2023-03-29T06:01:12.619Z,0.70
2023-03-29T06:04:17.935Z,1.23
2023-03-29T06:07:20.864Z,0.90
2023-03-29T06:10:24.705Z,0.90
2023-03-29T06:13:27.803Z,0.97
2023-03-29T06:16:30.664Z,1.95
2023-03-29T06:19:34.707Z,0.73
2023-03-29T06:22:37.572Z,1.00
2023-03-29T06:25:40.481Z,0.98
2023-03-29T06:28:43.172Z,1.10
2023-03-29T06:31:46.018Z,1.00
2023-03-29T06:34:50.950Z,1.00
2023-03-29T06:37:54.413Z,1.00
2023-03-29T06:41:02.181Z,1.00
2023-03-29T06:44:05.124Z,1.00
2023-03-29T06:47:08.259Z,1.05
2023-03-29T06:50:14.582Z,1.45
2023-03-29T06:53:17.281Z,1.30
2023-03-29T06:56:19.825Z,1.20
2023-03-29T06:59:22.317Z,0.87
2023-03-29T07:02:24.928Z,1.00
2023-03-29T07:05:29.487Z,1.30
2023-03-29T07:08:32.324Z,0.97
2023-03-29T07:11:35.317Z,1.40
2023-03-29T07:14:37.985Z,2.58
2023-03-29T07:17:40.565Z,1.17
2023-03-29T07:20:44.636Z,1.53
2023-03-29T07:23:47.172Z,1.10
2023-03-29T07:27:03.515Z,0.90
2023-03-29T07:30:11.155Z,1.00
2023-03-29T07:33:14.253Z,0.87
2023-03-29T07:36:18.436Z,1.27
2023-03-29T07:39:22.270Z,1.13
2023-03-29T07:42:24.818Z,1.20
2023-03-29T07:45:29.067Z,0.90
2023-03-29T07:48:32.374Z,1.20
2023-03-29T07:51:37.008Z,1.10
2023-03-29T07:54:39.671Z,0.90
2023-03-29T07:57:43.683Z,1.45
2023-03-29T08:00:46.512Z,1.07
2023-03-29T08:03:49.232Z,1.27
2023-03-29T08:06:54.209Z,2.15
2023-03-29T08:09:57.369Z,1.30
2023-03-29T08:13:00.164Z,1.13
2023-03-29T08:16:03.374Z,1.15
2023-03-29T08:19:07.081Z,0.80
2023-03-29T08:22:10.946Z,1.17
2023-03-29T08:25:13.610Z,1.00
2023-03-29T08:28:16.094Z,0.80
2023-03-29T08:31:18.742Z,1.00
2023-03-29T08:34:21.366Z,1.05
2023-03-29T08:37:25.952Z,0.93
2023-03-29T08:40:30.129Z,0.83
2023-03-29T08:43:53.132Z,0.77
2023-03-29T08:47:02.048Z,1.20
2023-03-29T08:50:05.635Z,1.17
2023-03-29T08:56:14.723Z,0.90
2023-03-29T08:59:20.582Z,1.23
2023-03-29T09:02:26.161Z,1.73
2023-03-29T09:05:31.165Z,1.00
2023-03-29T09:08:36.670Z,1.13
2023-03-29T09:11:58.248Z,0.90
2023-03-29T09:15:09.957Z,0.80
2023-03-29T09:18:15.619Z,1.60
2023-03-29T09:21:22.301Z,1.07
2023-03-29T09:24:38.818Z,1.00
2023-03-29T09:27:48.718Z,1.23
2023-03-29T09:30:56.426Z,0.90
2023-03-29T09:34:00.204Z,0.87
2023-03-29T09:37:04.852Z,0.80
2023-03-29T09:40:12.611Z,0.80
2023-03-29T09:43:18.313Z,0.97
2023-03-29T09:46:24.038Z,1.07
2023-03-29T09:49:29.761Z,0.83
2023-03-29T09:52:33.063Z,0.90
2023-03-29T09:55:39.526Z,1.08
2023-03-29T09:58:43.589Z,0.90
2023-03-29T10:01:46.499Z,1.00
2023-03-29T10:04:55.195Z,0.85
2023-03-29T10:08:01.085Z,0.97
2023-03-29T10:11:10.495Z,1.07
2023-03-29T10:14:16.156Z,0.90
2023-03-29T10:17:21.800Z,0.83
2023-03-29T10:20:25.753Z,0.87
2023-03-29T10:23:32.468Z,0.70
2023-03-29T10:26:38.996Z,1.00
2023-03-29T10:29:43.028Z,1.00
2023-03-29T10:32:46.237Z,0.73
2023-03-29T10:35:49.366Z,1.00
2023-03-29T10:38:52.629Z,1.20
2023-03-29T10:41:57.064Z,1.30
2023-03-29T10:45:00.616Z,1.10
2023-03-29T10:48:06.840Z,0.93
2023-03-29T10:51:09.427Z,0.83
2023-03-29T10:54:14.807Z,1.20
2023-03-29T10:57:24.589Z,1.10
2023-03-29T11:00:33.618Z,1.00
2023-03-29T11:03:55.969Z,0.87
2023-03-29T11:07:14.147Z,0.83
2023-03-29T11:10:28.350Z,0.80
2023-03-29T11:13:38.324Z,1.10
2023-03-29T11:16:45.681Z,0.90
2023-03-29T11:20:01.927Z,1.10
2023-03-29T11:23:16.449Z,1.10
2023-03-29T11:26:22.783Z,1.00
2023-03-29T11:29:29.631Z,0.83
2023-03-29T11:32:37.212Z,0.80
2023-03-29T11:35:44.763Z,0.80
2023-03-29T11:38:54.253Z,0.90
2023-03-29T11:42:01.519Z,0.97
2023-03-29T11:45:07.866Z,0.80
2023-03-29T11:48:16.538Z,0.90
2023-03-29T11:51:22.553Z,1.13
2023-03-29T11:54:29.405Z,0.90
2023-03-29T11:57:33.161Z,0.87
2023-03-29T12:00:39.452Z,0.90
2023-03-29T12:03:47.192Z,1.37
2023-03-29T12:06:54.301Z,0.80
2023-03-29T12:10:00.415Z,1.00
2023-03-29T12:13:05.700Z,0.90
2023-03-29T12:16:14.907Z,0.80
2023-03-29T12:19:20.567Z,0.80
2023-03-29T12:22:23.482Z,0.87
2023-03-29T12:25:29.412Z,0.93
2023-03-29T12:28:50.577Z,0.80
2023-03-29T12:32:02.559Z,0.60
2023-03-29T12:35:19.608Z,0.70
2023-03-29T12:38:23.755Z,0.93
2023-03-29T12:41:26.544Z,0.63
2023-03-29T12:44:29.278Z,0.60
2023-03-29T12:47:39.616Z,0.53
2023-03-29T12:50:46.866Z,0.60
2023-03-29T12:53:51.602Z,1.17
2023-03-29T12:56:58.226Z,0.40
2023-03-29T13:00:11.893Z,0.50
2023-03-29T13:06:32.173Z,0.80
2023-03-29T13:09:37.514Z,0.70
2023-03-29T13:12:42.273Z,0.50
2023-03-29T13:15:45.751Z,0.60
2023-03-29T13:19:01.342Z,0.80
2023-03-29T13:22:12.927Z,0.67
2023-03-29T13:25:24.235Z,0.93
2023-03-29T13:28:31.196Z,1.27
2023-03-29T13:31:39.245Z,0.70
2023-03-29T13:34:47.530Z,0.80
2023-03-29T13:37:59.458Z,0.60
2023-03-29T13:41:04.167Z,0.80
2023-03-29T13:44:19.312Z,0.80
2023-03-29T13:47:43.159Z,0.53
2023-03-29T13:50:56.525Z,0.70
2023-03-29T13:54:02.862Z,0.70
2023-03-29T13:57:11.116Z,0.90
2023-03-29T14:00:18.165Z,0.67
2023-03-29T14:03:26.211Z,1.00
2023-03-29T14:06:32.884Z,0.70
2023-03-29T14:09:39.881Z,1.10
2023-03-29T14:12:42.436Z,1.40
2023-03-29T14:15:46.888Z,0.75
2023-03-29T14:18:51.410Z,0.80
2023-03-29T14:21:55.477Z,1.27
2023-03-29T14:25:02.491Z,1.00
2023-03-29T14:28:14.103Z,1.30
2023-03-29T14:31:20.530Z,1.50
2023-03-29T14:34:24.016Z,1.13
2023-03-29T14:37:29.691Z,0.90
2023-03-29T14:40:33.914Z,0.90
2023-03-29T14:43:36.496Z,0.90
2023-03-29T14:46:39.309Z,0.63
2023-03-29T14:49:41.881Z,0.93
2023-03-29T14:52:47.583Z,0.90
2023-03-29T14:55:52.857Z,0.90
2023-03-29T14:58:56.628Z,0.80
2023-03-29T15:01:59.267Z,1.20
2023-03-29T15:05:04.689Z,1.30
2023-03-29T15:08:13.667Z,1.00
2023-03-29T15:11:20.069Z,0.90
2023-03-29T15:14:23.603Z,1.30
2023-03-29T15:17:43.179Z,1.37
2023-03-29T15:20:52.589Z,1.33
2023-03-29T15:23:58.318Z,1.20
2023-03-29T15:27:03.366Z,1.20
2023-03-29T15:30:13.387Z,1.10
2023-03-29T15:33:17.767Z,1.10
2023-03-29T15:36:20.440Z,1.10
2023-03-29T15:39:24.725Z,0.93
2023-03-29T15:42:27.486Z,1.00
2023-03-29T15:45:30.109Z,1.05
2023-03-29T15:48:33.626Z,0.70
2023-03-29T15:51:36.401Z,0.73
2023-03-29T15:54:40.403Z,1.02
2023-03-29T15:57:44.722Z,1.30
2023-03-29T16:00:50.876Z,1.33
2023-03-29T16:03:53.668Z,1.40
2023-03-29T16:06:57.650Z,1.15
2023-03-29T16:10:01.643Z,1.40
2023-03-29T16:13:04.392Z,1.53
2023-03-29T16:16:08.442Z,2.00
2023-03-29T16:19:11.161Z,2.10
2023-03-29T16:22:13.763Z,1.70
2023-03-29T16:25:19.980Z,1.90
2023-03-29T16:28:22.889Z,2.43
2023-03-29T16:31:27.029Z,1.80
2023-03-29T16:34:30.059Z,2.13
2023-03-29T16:37:32.844Z,1.38
2023-03-29T16:40:37.185Z,1.48
2023-03-29T16:43:39.732Z,1.30
2023-03-29T16:46:42.531Z,1.27
2023-03-29T16:49:48.526Z,1.50
2023-03-29T16:52:52.851Z,1.10
2023-03-29T16:55:56.849Z,2.17
2023-03-29T16:58:59.409Z,1.40
2023-03-29T17:02:01.872Z,1.42
2023-03-29T17:05:06.016Z,1.67
2023-03-29T17:08:10.026Z,1.70
2023-03-29T17:11:15.512Z,1.90
2023-03-29T17:14:18.080Z,1.40
2023-03-29T17:17:20.662Z,2.22
2023-03-29T17:20:23.178Z,1.40
2023-03-29T17:23:26.612Z,1.85
2023-03-29T17:29:33.497Z,1.67
2023-03-29T17:32:36.738Z,1.75
2023-03-29T17:35:39.685Z,1.98
2023-03-29T17:38:43.043Z,2.13
2023-03-29T17:41:47.622Z,2.40
2023-03-29T17:44:51.034Z,2.53
2023-03-29T17:50:57.832Z,2.80
2023-03-29T17:54:01.597Z,2.30
2023-03-29T17:57:05.764Z,2.47
2023-03-29T18:00:12.129Z,3.20
2023-03-29T18:03:14.780Z,2.60
2023-03-29T18:06:20.206Z,3.50
2023-03-29T18:09:22.899Z,2.43
2023-03-29T18:12:27.085Z,2.75
2023-03-29T18:15:29.689Z,2.53
2023-03-29T18:18:32.726Z,2.42
2023-03-29T18:21:35.257Z,3.10
2023-03-29T18:24:37.890Z,2.10
2023-03-29T18:27:41.767Z,3.60
2023-03-29T18:30:44.577Z,2.60
2023-03-29T18:33:47.510Z,1.95
2023-03-29T18:36:50.791Z,2.33
2023-03-29T18:39:53.300Z,2.60
2023-03-29T18:42:57.284Z,2.73
2023-03-29T18:45:59.994Z,2.63
2023-03-29T18:49:03.110Z,2.08
2023-03-29T18:52:05.811Z,2.70
2023-03-29T18:55:10.236Z,2.10
2023-03-29T18:58:15.651Z,2.10
2023-03-29T19:01:18.297Z,2.00
2023-03-29T19:04:20.969Z,2.10
2023-03-29T19:07:23.767Z,2.75
2023-03-29T19:10:27.349Z,2.38
2023-03-29T19:16:33.964Z,2.63
2023-03-29T19:19:37.765Z,4.00
2023-03-29T19:22:40.412Z,2.50
2023-03-29T19:28:47.184Z,2.22
2023-03-29T19:31:51.806Z,2.93
2023-03-29T19:34:54.332Z,3.57
2023-03-29T19:37:56.837Z,3.83
2023-03-29T19:40:59.531Z,3.83
2023-03-29T19:44:03.723Z,5.25
2023-03-29T19:47:06.438Z,11.23
2023-03-29T19:50:12.301Z,15.65
2023-03-29T19:53:14.997Z,11.90
2023-03-29T19:56:17.869Z,8.27
2023-03-29T19:59:21.765Z,6.68
2023-03-29T20:02:24.319Z,9.73
2023-03-29T20:05:27.292Z,7.20
2023-03-29T20:08:29.918Z,5.10
2023-03-29T20:11:32.519Z,5.90
2023-03-29T20:14:40.112Z,5.57
2023-03-29T20:17:42.815Z,5.87
2023-03-29T20:20:46.815Z,6.57
2023-03-29T20:23:49.395Z,5.40
2023-03-29T20:26:51.926Z,6.87
2023-03-29T20:29:55.935Z,7.17
2023-03-29T20:32:58.514Z,5.60
2023-03-29T20:36:01.386Z,5.18
2023-03-29T20:39:04.964Z,5.65
2023-03-29T20:45:18.579Z,4.80
2023-03-29T20:48:23.093Z,5.03
2023-03-29T20:51:28.062Z,4.90
2023-03-29T20:54:33.199Z,4.33
2023-03-29T20:57:36.727Z,3.43
2023-03-29T21:00:40.639Z,4.27
2023-03-29T21:03:43.273Z,4.43
2023-03-29T21:06:49.571Z,3.58
2023-03-29T21:09:52.129Z,3.80
2023-03-29T21:13:00.022Z,4.07
2023-03-29T21:16:03.972Z,4.20
2023-03-29T21:19:06.558Z,3.97
2023-03-29T21:22:09.101Z,3.60
2023-03-29T21:25:15.505Z,3.77
2023-03-29T21:28:18.128Z,3.30
2023-03-29T21:31:22.074Z,2.50
2023-03-29T21:34:24.633Z,2.60
2023-03-29T21:37:27.405Z,2.80
2023-03-29T21:40:29.953Z,2.78
2023-03-29T21:43:32.682Z,2.77
2023-03-29T21:46:36.769Z,2.47
2023-03-29T21:49:39.630Z,2.40
2023-03-29T21:52:42.228Z,3.00
2023-03-29T21:55:44.858Z,2.63
2023-03-29T21:58:47.423Z,2.88
2023-03-29T22:01:51.280Z,2.00
2023-03-29T22:04:53.851Z,1.80
2023-03-29T22:07:58.700Z,1.50
2023-03-29T22:11:08.048Z,1.47
2023-03-29T22:14:10.931Z,1.70
2023-03-29T22:17:15.945Z,1.10
2023-03-29T22:20:18.958Z,1.50
2023-03-29T22:23:21.571Z,1.80
2023-03-29T22:26:27.397Z,1.98
2023-03-29T22:29:30.061Z,1.43
2023-03-29T22:32:33.913Z,1.40
2023-03-29T22:35:36.904Z,2.13
2023-03-29T22:38:39.461Z,1.60
2023-03-29T22:41:42.289Z,1.97
2023-03-29T22:44:44.797Z,1.55
2023-03-29T22:47:48.704Z,1.63
2023-03-29T22:50:51.286Z,1.27
2023-03-29T22:53:54.056Z,1.83
2023-03-29T22:56:57.568Z,2.33
2023-03-29T23:03:04.020Z,1.80
2023-03-29T23:06:07.113Z,1.67
2023-03-29T23:09:10.283Z,1.70
2023-03-29T23:12:12.833Z,1.98
2023-03-29T23:15:16.046Z,2.58
2023-03-29T23:18:21.109Z,1.38
2023-03-29T23:21:23.796Z,2.53
2023-03-29T23:24:26.574Z,2.35
2023-03-29T23:27:29.414Z,1.30
2023-03-29T23:30:31.972Z,1.73
2023-03-29T23:33:38.506Z,1.33
2023-03-29T23:36:41.116Z,1.70
2023-03-29T23:39:43.688Z,1.95
2023-03-29T23:42:48.340Z,2.00
2023-03-29T23:45:56.654Z,1.57
2023-03-29T23:49:00.530Z,1.20
2023-03-29T23:52:03.168Z,1.60
2023-03-29T23:55:06.644Z,1.48
